Time;durP1;ratioP1;P1;durP2;ratioP2;P2;SDS_P1;SDS_P2;PMS_P1;PMS_P2;Temp;Humidity;BMP_temperature;BMP_pressure;BME280_temperature;BME280_humidity;BME280_pressure;Samples;Min_cycle;Max_cycle;Signal;HPM_P1;HPM_P2
2022/01/10 00:00:25;;;;;;;31.38;19.83;;;2.00;99.90;;;;;;5033239;28;20033;-71
2022/01/10 00:02:56;;;;;;;33.55;20.27;;;2.00;99.90;;;;;;5033270;28;20028;-71
2022/01/10 00:05:22;;;;;;;32.20;20.77;;;1.90;99.90;;;;;;5033101;28;20057;-71
2022/01/10 00:07:49;;;;;;;33.17;20.35;;;1.80;99.90;;;;;;5033209;28;20396;-71
2022/01/10 00:10:15;;;;;;;32.47;20.90;;;1.80;99.90;;;;;;5032998;28;20030;-71
2022/01/10 00:12:41;;;;;;;35.05;20.52;;;1.80;99.90;;;;;;5033132;28;20021;-71
2022/01/10 00:15:09;;;;;;;34.90;21.42;;;1.80;99.90;;;;;;5032972;28;20049;-71
2022/01/10 00:17:38;;;;;;;33.63;21.20;;;1.80;99.90;;;;;;5033055;28;20022;-71
2022/01/10 00:20:08;;;;;;;32.78;20.65;;;1.80;99.90;;;;;;5032702;28;20094;-71
2022/01/10 00:22:34;;;;;;;32.50;20.65;;;1.80;99.90;;;;;;5033561;28;20025;-71
2022/01/10 00:25:00;;;;;;;31.38;20.65;;;1.80;99.90;;;;;;5055498;22;20118;-73
2022/01/10 00:27:25;;;;;;;32.28;19.55;;;1.70;99.90;;;;;;5033282;28;20034;-73
2022/01/10 00:29:51;;;;;;;32.58;21.58;;;1.70;99.90;;;;;;5033091;28;20483;-73
2022/01/10 00:32:17;;;;;;;29.38;20.17;;;1.60;99.90;;;;;;5032930;28;20025;-73
2022/01/10 00:34:43;;;;;;;31.90;19.17;;;1.60;99.90;;;;;;5007500;28;20493;-73
2022/01/10 00:37:09;;;;;;;29.35;19.08;;;1.60;99.90;;;;;;5013171;28;20032;-73
2022/01/10 00:39:35;;;;;;;30.08;19.85;;;1.60;99.90;;;;;;5015202;28;20549;-73
2022/01/10 00:42:00;;;;;;;31.15;20.08;;;1.50;99.90;;;;;;5015812;28;20014;-73
2022/01/10 00:44:28;;;;;;;31.55;20.20;;;1.50;99.90;;;;;;5015192;28;20428;-73
2022/01/10 00:46:53;;;;;;;33.53;20.63;;;1.50;99.90;;;;;;5032795;28;20053;-73
2022/01/10 00:49:19;;;;;;;35.85;21.45;;;1.50;99.90;;;;;;5030896;28;20018;-73
2022/01/10 00:51:45;;;;;;;30.55;20.17;;;1.50;99.90;;;;;;5032961;28;20029;-73
2022/01/10 00:54:10;;;;;;;33.35;19.98;;;1.50;99.90;;;;;;5032986;28;20030;-73
2022/01/10 00:56:36;;;;;;;33.63;21.00;;;1.50;99.90;;;;;;5032678;28;20072;-73
2022/01/10 00:59:02;;;;;;;29.95;18.77;;;1.50;99.90;;;;;;5028169;28;20030;-73
2022/01/10 01:01:28;;;;;;;29.55;19.48;;;1.50;99.90;;;;;;5032699;28;20101;-73
2022/01/10 01:03:53;;;;;;;32.10;20.50;;;1.50;99.90;;;;;;5032906;28;20078;-73
2022/01/10 01:06:19;;;;;;;32.63;20.63;;;1.50;99.90;;;;;;5032550;28;20036;-73
2022/01/10 01:08:46;;;;;;;32.30;20.70;;;1.60;99.90;;;;;;5032612;28;20022;-73
2022/01/10 01:13:59;;;;;;;32.10;20.58;;;1.60;99.90;;;;;;5031067;28;20507;-73
2022/01/10 01:17:11;;;;;;;32.35;19.58;;;1.70;99.90;;;;;;5030820;28;20036;-73
2022/01/10 01:24:34;;;;;;;34.50;21.35;;;1.80;99.90;;;;;;5034221;28;20516;-73
2022/01/10 01:26:59;;;;;;;34.28;21.83;;;1.80;99.90;;;;;;5035898;28;20116;-73
2022/01/10 01:29:28;;;;;;;33.42;21.23;;;1.90;99.90;;;;;;5031388;28;20069;-73
2022/01/10 01:31:55;;;;;;;37.65;21.75;;;1.90;99.90;;;;;;5017511;28;20022;-73
2022/01/10 01:34:22;;;;;;;33.83;20.98;;;1.90;99.90;;;;;;5018154;28;20175;-73
2022/01/10 01:36:52;;;;;;;33.63;20.88;;;1.90;99.90;;;;;;5035757;28;20155;-73
2022/01/10 01:39:24;;;;;;;32.95;20.83;;;2.00;99.90;;;;;;5022216;28;20044;-73
2022/01/10 01:41:54;;;;;;;31.70;19.52;;;2.00;99.90;;;;;;5015975;28;20025;-73
2022/01/10 01:44:20;;;;;;;32.53;19.95;;;2.00;99.90;;;;;;4999836;28;20383;-73
2022/01/10 01:46:46;;;;;;;31.90;20.30;;;2.00;99.90;;;;;;5017788;28;20025;-74
2022/01/10 01:49:12;;;;;;;27.80;18.48;;;2.10;99.90;;;;;;5035288;28;20032;-73
2022/01/10 01:51:39;;;;;;;26.45;18.52;;;2.10;99.90;;;;;;4998205;28;20069;-73
2022/01/10 01:54:05;;;;;;;28.95;17.95;;;2.10;99.90;;;;;;5015961;28;20474;-73
2022/01/10 01:56:31;;;;;;;28.38;18.70;;;2.10;99.90;;;;;;5015887;28;20473;-73
2022/01/10 01:58:56;;;;;;;30.35;19.55;;;2.10;99.90;;;;;;5026518;28;20021;-73
2022/01/10 02:01:24;;;;;;;28.05;18.23;;;2.10;99.90;;;;;;5035909;28;20384;-73
2022/01/10 02:03:50;;;;;;;28.60;18.02;;;2.10;99.90;;;;;;5035609;28;20481;-73
2022/01/10 02:06:17;;;;;;;24.58;16.65;;;2.10;99.90;;;;;;5016738;28;20447;-74
2022/01/10 02:08:43;;;;;;;27.58;16.55;;;2.20;99.90;;;;;;5033183;28;20504;-73
2022/01/10 02:11:11;;;;;;;25.73;17.40;;;2.20;99.90;;;;;;5035140;28;20029;-73
2022/01/10 02:13:37;;;;;;;24.00;15.95;;;2.10;99.90;;;;;;5028182;28;20370;-74
2022/01/10 02:16:06;;;;;;;27.85;16.75;;;2.10;99.90;;;;;;5013936;28;20029;-74
2022/01/10 02:18:32;;;;;;;30.95;18.95;;;2.20;99.90;;;;;;5015269;28;20017;-73
2022/01/10 02:21:03;;;;;;;30.40;18.95;;;2.20;99.90;;;;;;5015175;28;20025;-73
2022/01/10 02:23:29;;;;;;;31.70;20.40;;;2.10;99.90;;;;;;4997658;28;20029;-73
2022/01/10 02:25:56;;;;;;;30.52;20.45;;;2.10;99.90;;;;;;5014946;28;20034;-73
2022/01/10 02:28:23;;;;;;;35.40;22.02;;;2.10;99.90;;;;;;5015120;28;20037;-73
2022/01/10 02:30:55;;;;;;;28.95;19.45;;;2.10;99.90;;;;;;5022358;28;20030;-73
2022/01/10 02:33:25;;;;;;;29.50;19.88;;;2.10;99.90;;;;;;5033075;28;20021;-73
2022/01/10 02:36:04;;;;;;;31.35;19.60;;;2.00;99.90;;;;;;5034856;28;20481;-73
2022/01/10 02:38:30;;;;;;;28.13;18.90;;;2.00;99.90;;;;;;5034634;28;20044;-73
2022/01/10 02:40:57;;;;;;;25.95;17.65;;;2.00;99.90;;;;;;5034915;28;20021;-73
2022/01/10 02:43:23;;;;;;;32.03;18.80;;;2.00;99.90;;;;;;5034560;28;20105;-73
2022/01/10 02:45:48;;;;;;;28.08;17.00;;;2.00;99.90;;;;;;5034605;28;20100;-73
2022/01/10 02:48:14;;;;;;;26.30;17.33;;;2.00;99.90;;;;;;5034509;28;20018;-73
2022/01/10 02:50:40;;;;;;;28.40;17.27;;;2.00;99.90;;;;;;5034394;28;20053;-73
2022/01/10 02:53:05;;;;;;;29.30;17.80;;;2.10;99.90;;;;;;5034353;28;20037;-73
2022/01/10 02:55:31;;;;;;;24.75;16.33;;;2.10;99.90;;;;;;5034229;28;20044;-73
2022/01/10 02:57:56;;;;;;;23.58;16.05;;;2.10;99.90;;;;;;5034584;28;20025;-73
2022/01/10 03:00:24;;;;;;;26.23;17.48;;;2.10;99.90;;;;;;5034518;28;20030;-73
2022/01/10 03:02:53;;;;;;;25.35;16.30;;;2.10;99.90;;;;;;5034222;28;20036;-73
2022/01/10 03:05:20;;;;;;;28.52;18.02;;;2.10;99.90;;;;;;5034084;28;20029;-73
2022/01/10 03:07:46;;;;;;;26.88;17.13;;;2.10;99.90;;;;;;5034393;28;20041;-73
2022/01/10 03:10:12;;;;;;;25.83;17.67;;;2.00;99.90;;;;;;5033966;28;20083;-73
2022/01/10 03:12:38;;;;;;;30.27;19.95;;;2.00;99.90;;;;;;5034581;28;20030;-73
2022/01/10 03:15:07;;;;;;;31.15;20.45;;;2.00;99.90;;;;;;5033881;28;20018;-73
2022/01/10 03:17:34;;;;;;;31.77;19.80;;;2.00;99.90;;;;;;5033913;28;20071;-73
2022/01/10 03:19:59;;;;;;;31.73;20.20;;;2.00;99.90;;;;;;5033901;28;20029;-73
2022/01/10 03:22:26;;;;;;;29.60;20.30;;;2.00;99.90;;;;;;5034101;28;20105;-73
2022/01/10 03:24:53;;;;;;;29.65;19.52;;;2.00;99.90;;;;;;5015848;28;20025;-73
2022/01/10 03:27:19;;;;;;;30.52;19.00;;;2.00;99.90;;;;;;5033968;28;20080;-73
2022/01/10 03:29:45;;;;;;;30.00;19.02;;;1.90;99.90;;;;;;5033913;28;20025;-73
2022/01/10 03:32:11;;;;;;;28.98;19.75;;;1.90;99.90;;;;;;5033928;28;20025;-73
2022/01/10 03:34:38;;;;;;;29.85;20.02;;;1.80;99.90;;;;;;5015937;28;20029;-73
2022/01/10 03:37:03;;;;;;;29.90;19.10;;;1.80;99.90;;;;;;5033542;28;20041;-73
2022/01/10 03:39:29;;;;;;;28.77;18.67;;;1.80;99.90;;;;;;5033847;28;20030;-73
2022/01/10 03:41:54;;;;;;;30.65;19.88;;;1.80;99.90;;;;;;5033541;28;20021;-73
2022/01/10 03:44:20;;;;;;;28.35;18.70;;;1.80;99.90;;;;;;5033145;28;20029;-73
2022/01/10 03:46:47;;;;;;;33.03;21.08;;;1.70;99.90;;;;;;5033558;28;20393;-73
2022/01/10 03:49:14;;;;;;;34.38;21.15;;;1.70;99.90;;;;;;5033676;28;20037;-73
2022/01/10 03:51:39;;;;;;;32.67;21.40;;;1.80;99.90;;;;;;5033622;28;20021;-73
2022/01/10 03:54:05;;;;;;;28.50;19.08;;;1.70;99.90;;;;;;5033764;28;20028;-73
2022/01/10 03:56:31;;;;;;;34.05;21.67;;;1.70;99.90;;;;;;5033251;28;20515;-73
2022/01/10 03:58:57;;;;;;;30.60;19.83;;;1.70;99.90;;;;;;5033342;28;20026;-73
2022/01/10 04:01:23;;;;;;;32.47;20.67;;;1.70;99.90;;;;;;5015574;28;20064;-73
2022/01/10 04:03:49;;;;;;;31.70;20.55;;;1.70;99.90;;;;;;5015581;28;20561;-73
2022/01/10 04:06:14;;;;;;;34.83;21.23;;;1.60;99.90;;;;;;5015494;28;20068;-73
2022/01/10 04:08:40;;;;;;;40.95;25.23;;;1.60;99.90;;;;;;5017513;28;20030;-73
2022/01/10 04:11:06;;;;;;;47.28;25.58;;;1.60;99.90;;;;;;5026350;28;20108;-73
2022/01/10 04:13:31;;;;;;;40.22;24.48;;;1.60;99.90;;;;;;5013418;28;20080;-74
2022/01/10 04:15:57;;;;;;;47.58;28.08;;;1.60;99.90;;;;;;4995692;28;20421;-73
2022/01/10 04:18:23;;;;;;;45.67;26.98;;;1.70;99.90;;;;;;5016925;28;20029;-74
2022/01/10 04:20:49;;;;;;;44.00;23.80;;;1.70;99.90;;;;;;5033116;28;20112;-73
2022/01/10 04:23:16;;;;;;;45.47;24.65;;;1.70;99.90;;;;;;5033022;28;20151;-73
2022/01/10 04:25:42;;;;;;;38.10;23.60;;;1.70;99.90;;;;;;5033005;28;20037;-73
2022/01/10 04:28:08;;;;;;;37.03;23.48;;;1.70;99.90;;;;;;5033256;28;20029;-73
2022/01/10 04:30:34;;;;;;;37.45;22.83;;;1.80;99.90;;;;;;5033157;28;20033;-73
2022/01/10 04:33:01;;;;;;;40.97;23.45;;;1.70;99.90;;;;;;5015291;28;20033;-73
2022/01/10 04:35:28;;;;;;;38.70;22.95;;;1.70;99.90;;;;;;5032822;28;20385;-74
2022/01/10 04:37:53;;;;;;;40.50;23.15;;;1.80;99.90;;;;;;5033168;28;20493;-74
2022/01/10 04:40:19;;;;;;;37.75;21.55;;;1.80;99.90;;;;;;5015225;28;20033;-74
2022/01/10 04:42:45;;;;;;;35.92;22.02;;;1.80;99.90;;;;;;5028571;28;20079;-74
2022/01/10 04:45:12;;;;;;;37.53;21.88;;;1.80;99.90;;;;;;5030747;28;20042;-74
2022/01/10 04:47:38;;;;;;;35.33;20.83;;;1.80;99.90;;;;;;5029255;28;20481;-73
2022/01/10 04:50:29;;;;;;;34.45;19.45;;;1.70;99.90;;;;;;5015021;28;20036;-74
2022/01/10 04:52:52;;;;;;;38.60;22.83;;;1.70;99.90;;;;;;5019124;28;20033;-73
2022/01/10 04:55:19;;;;;;;40.03;23.15;;;1.70;99.90;;;;;;5013357;28;20426;-74
2022/01/10 04:57:45;;;;;;;46.33;24.75;;;1.70;99.90;;;;;;5032621;28;20037;-73
2022/01/10 05:00:13;;;;;;;35.78;21.83;;;1.80;99.90;;;;;;5018751;28;20397;-73
2022/01/10 05:02:41;;;;;;;39.72;22.90;;;1.70;99.90;;;;;;5025559;28;20033;-73
2022/01/10 05:05:07;;;;;;;39.85;24.05;;;1.70;99.90;;;;;;5016879;28;20164;-73
2022/01/10 05:07:32;;;;;;;35.95;21.73;;;1.70;99.90;;;;;;5021613;28;20540;-73
2022/01/10 05:09:59;;;;;;;31.67;20.40;;;1.60;99.90;;;;;;5036280;28;20036;-74
2022/01/10 05:12:26;;;;;;;34.88;21.13;;;1.50;99.90;;;;;;5036531;28;20029;-73
2022/01/10 05:14:52;;;;;;;38.72;22.77;;;1.50;99.90;;;;;;5027564;28;20018;-74
2022/01/10 05:17:22;;;;;;;35.53;22.25;;;1.40;99.90;;;;;;5016566;28;20390;-73
2022/01/10 05:19:48;;;;;;;37.92;22.13;;;1.40;99.90;;;;;;4998837;28;20032;-74
2022/01/10 05:22:14;;;;;;;39.83;22.35;;;1.30;99.90;;;;;;4998798;28;20393;-74
2022/01/10 05:24:39;;;;;;;38.17;20.92;;;1.20;99.90;;;;;;5016217;28;20026;-74
2022/01/10 05:27:05;;;;;;;35.00;21.00;;;1.20;99.90;;;;;;5016124;28;20036;-73
2022/01/10 05:29:31;;;;;;;38.22;21.30;;;1.20;99.90;;;;;;5016375;28;20030;-73
2022/01/10 05:31:57;;;;;;;35.80;21.73;;;1.20;99.90;;;;;;5016105;28;20105;-74
2022/01/10 05:34:23;;;;;;;43.55;22.42;;;1.20;99.90;;;;;;5015696;28;20037;-73
2022/01/10 05:36:49;;;;;;;40.47;22.50;;;1.20;99.90;;;;;;5015988;28;20022;-73
2022/01/10 05:39:15;;;;;;;36.22;22.25;;;1.20;99.90;;;;;;5016311;28;20030;-73
2022/01/10 05:41:41;;;;;;;38.90;22.52;;;1.20;99.90;;;;;;5016009;28;20026;-73
2022/01/10 05:44:06;;;;;;;37.13;22.83;;;1.20;99.90;;;;;;5025848;28;20022;-74
2022/01/10 05:46:35;;;;;;;42.55;22.77;;;1.20;99.90;;;;;;5015971;28;20029;-73
2022/01/10 05:49:02;;;;;;;37.40;21.83;;;1.10;99.90;;;;;;5016143;28;20026;-73
2022/01/10 05:51:34;;;;;;;39.20;23.38;;;1.10;99.90;;;;;;5033524;28;20029;-73
2022/01/10 05:54:04;;;;;;;42.35;23.42;;;1.10;99.90;;;;;;5035605;28;20108;-73
2022/01/10 05:56:29;;;;;;;56.92;27.27;;;1.20;99.90;;;;;;5013868;28;20022;-73
2022/01/10 05:58:55;;;;;;;51.25;27.40;;;1.20;99.90;;;;;;5015666;28;20084;-73
2022/01/10 06:01:21;;;;;;;46.70;26.48;;;1.20;99.90;;;;;;5033425;28;20030;-74
2022/01/10 06:03:47;;;;;;;52.75;29.23;;;1.20;99.90;;;;;;5035368;28;20083;-73
2022/01/10 06:06:12;;;;;;;58.08;29.83;;;1.20;99.90;;;;;;5029505;28;20113;-73
2022/01/10 06:08:38;;;;;;;61.50;30.25;;;1.20;99.90;;;;;;5015553;28;20096;-73
2022/01/10 06:11:03;;;;;;;63.35;30.67;;;1.20;99.90;;;;;;5015322;28;20030;-73
2022/01/10 06:13:29;;;;;;;59.67;30.23;;;1.20;99.90;;;;;;5014187;28;20037;-73
2022/01/10 06:15:55;;;;;;;55.72;29.75;;;1.20;99.90;;;;;;5015294;28;20389;-73
2022/01/10 06:18:20;;;;;;;57.10;29.55;;;1.20;99.90;;;;;;5015582;28;20018;-73
2022/01/10 06:20:46;;;;;;;64.72;30.65;;;1.20;99.90;;;;;;5015227;28;20105;-73
2022/01/10 06:23:12;;;;;;;60.70;31.90;;;1.30;99.90;;;;;;5015235;28;20473;-74
2022/01/10 06:25:40;;;;;;;55.70;27.30;;;1.30;99.90;;;;;;5015304;28;20045;-74
2022/01/10 06:28:06;;;;;;;50.55;27.95;;;1.30;99.90;;;;;;5015112;28;20053;-73
2022/01/10 06:30:32;;;;;;;60.95;30.08;;;1.30;99.90;;;;;;5014957;28;20053;-73
2022/01/10 06:32:58;;;;;;;56.03;28.20;;;1.30;99.90;;;;;;5015254;28;20026;-73
2022/01/10 06:35:24;;;;;;;62.83;30.40;;;1.20;99.90;;;;;;5014911;28;20053;-73
2022/01/10 06:37:50;;;;;;;67.22;32.70;;;1.30;99.90;;;;;;5014941;28;20022;-73
2022/01/10 06:40:16;;;;;;;75.30;33.00;;;1.30;99.90;;;;;;5014896;28;20052;-73
2022/01/10 06:42:42;;;;;;;82.63;34.65;;;1.30;99.90;;;;;;5014788;28;20481;-73
2022/01/10 06:45:09;;;;;;;68.70;34.03;;;1.30;99.90;;;;;;5014719;28;20021;-73
2022/01/10 06:47:34;;;;;;;79.28;35.15;;;1.30;99.90;;;;;;5030233;28;20042;-73
2022/01/10 06:50:00;;;;;;;73.70;34.00;;;1.30;99.90;;;;;;5029197;28;20486;-73
2022/01/10 06:52:25;;;;;;;70.38;33.65;;;1.40;99.90;;;;;;5014645;28;20022;-73
2022/01/10 06:54:51;;;;;;;93.63;38.40;;;1.30;99.90;;;;;;5015148;28;20022;-73
2022/01/10 06:57:17;;;;;;;79.40;38.85;;;1.40;99.90;;;;;;5034341;28;20029;-73
2022/01/10 06:59:43;;;;;;;86.43;38.90;;;1.50;99.90;;;;;;5034283;28;20028;-73
2022/01/10 07:02:08;;;;;;;99.05;39.72;;;1.50;99.90;;;;;;5034250;28;20051;-73
2022/01/10 07:04:34;;;;;;;80.90;37.63;;;1.60;99.90;;;;;;5033171;28;20076;-72
2022/01/10 07:07:00;;;;;;;80.47;38.58;;;1.60;99.90;;;;;;4996725;28;20033;-73
2022/01/10 07:09:26;;;;;;;81.15;37.50;;;1.60;99.90;;;;;;5014338;28;20478;-73
2022/01/10 07:11:51;;;;;;;90.53;40.03;;;1.60;99.90;;;;;;5018634;28;20045;-73
2022/01/10 07:14:17;;;;;;;79.68;36.22;;;1.60;99.90;;;;;;5014233;28;20026;-73
2022/01/10 07:16:43;;;;;;;82.50;37.65;;;1.60;99.90;;;;;;5033869;28;20034;-73
2022/01/10 07:19:09;;;;;;;93.03;40.97;;;1.70;99.90;;;;;;5033421;28;20029;-73
2022/01/10 07:21:39;;;;;;;90.40;41.78;;;1.70;99.90;;;;;;5034122;28;20079;-73
2022/01/10 07:24:06;;;;;;;88.07;39.95;;;1.70;99.90;;;;;;5016918;28;20026;-73
2022/01/10 07:26:32;;;;;;;80.93;36.92;;;1.70;99.90;;;;;;5013844;28;20124;-73
2022/01/10 07:28:59;;;;;;;72.88;33.40;;;1.70;99.90;;;;;;5024577;28;20037;-73
2022/01/10 07:31:25;;;;;;;77.05;36.35;;;1.70;99.90;;;;;;5016195;28;20029;-73
2022/01/10 07:33:50;;;;;;;73.70;35.03;;;1.70;99.90;;;;;;5033965;28;20431;-73
2022/01/10 07:36:16;;;;;;;70.47;33.88;;;1.70;99.90;;;;;;5033614;28;20021;-73
2022/01/10 07:38:42;;;;;;;78.32;36.85;;;1.80;99.90;;;;;;5020993;28;20026;-73
2022/01/10 07:41:08;;;;;;;78.80;35.45;;;1.70;99.90;;;;;;5013868;28;20489;-73
2022/01/10 07:43:35;;;;;;;75.22;36.20;;;1.80;99.90;;;;;;5013787;28;20033;-73
2022/01/10 07:46:02;;;;;;;64.50;33.72;;;1.80;99.90;;;;;;5013683;28;20079;-73
2022/01/10 07:48:30;;;;;;;72.25;35.10;;;1.80;99.90;;;;;;5013717;28;20037;-73
2022/01/10 07:50:56;;;;;;;80.45;33.92;;;1.90;99.90;;;;;;5013573;28;20033;-73
2022/01/10 07:53:22;;;;;;;74.43;35.65;;;1.90;99.90;;;;;;5013612;28;20026;-73
2022/01/10 07:55:48;;;;;;;76.28;35.00;;;1.90;99.90;;;;;;5013799;28;20108;-73
2022/01/10 07:58:14;;;;;;;73.75;36.17;;;2.00;99.90;;;;;;5013742;28;20508;-73
2022/01/10 08:00:40;;;;;;;81.60;34.92;;;2.00;99.90;;;;;;4995937;28;20057;-73
2022/01/10 08:03:06;;;;;;;80.78;36.45;;;2.00;99.90;;;;;;4995879;28;20075;-73
2022/01/10 08:05:31;;;;;;;73.05;33.33;;;2.00;99.90;;;;;;5013371;28;20041;-73
2022/01/10 08:07:57;;;;;;;82.18;39.42;;;2.00;99.90;;;;;;5013506;28;20057;-73
2022/01/10 08:10:23;;;;;;;95.70;42.05;;;2.10;99.90;;;;;;5013530;28;20026;-73
2022/01/10 08:12:48;;;;;;;82.22;38.53;;;2.10;99.90;;;;;;5013463;28;20018;-73
2022/01/10 08:15:14;;;;;;;99.70;43.10;;;2.10;99.90;;;;;;5013335;28;20026;-73
2022/01/10 08:17:41;;;;;;;84.97;40.38;;;2.10;99.90;;;;;;5013653;28;20022;-73
2022/01/10 08:20:07;;;;;;;87.35;42.55;;;2.10;99.90;;;;;;5013269;28;20101;-73
2022/01/10 08:22:33;;;;;;;84.45;40.72;;;2.20;99.90;;;;;;5013585;28;20030;-73
2022/01/10 08:24:58;;;;;;;91.97;41.55;;;2.20;99.90;;;;;;5013362;28;20033;-73
2022/01/10 08:27:25;;;;;;;99.50;42.80;;;2.30;99.90;;;;;;5013490;28;20133;-73
2022/01/10 08:29:50;;;;;;;104.25;43.90;;;2.30;99.90;;;;;;5014744;28;20097;-73
2022/01/10 08:32:17;;;;;;;102.07;44.08;;;2.30;99.90;;;;;;5017676;28;20478;-73
2022/01/10 08:34:42;;;;;;;104.07;48.42;;;2.40;99.90;;;;;;5017714;28;20034;-73
2022/01/10 08:37:08;;;;;;;112.57;47.03;;;2.40;99.90;;;;;;5017189;28;20028;-73
2022/01/10 08:39:34;;;;;;;108.75;49.88;;;2.40;99.90;;;;;;4999614;28;20081;-73
2022/01/10 08:41:59;;;;;;;110.90;48.10;;;2.40;99.90;;;;;;5023800;28;20067;-72
2022/01/10 08:44:25;;;;;;;111.43;49.40;;;2.50;99.90;;;;;;5023090;28;20052;-73
2022/01/10 08:46:51;;;;;;;98.03;45.13;;;2.50;99.90;;;;;;5036727;28;20469;-73
2022/01/10 08:49:17;;;;;;;111.75;48.88;;;2.50;99.90;;;;;;5037073;28;20021;-73
2022/01/10 08:51:43;;;;;;;118.78;51.58;;;2.60;99.90;;;;;;5032920;28;20025;-72
2022/01/10 08:54:09;;;;;;;114.60;50.05;;;2.60;99.90;;;;;;5016990;28;20044;-73
2022/01/10 08:56:35;;;;;;;107.25;50.05;;;2.60;99.90;;;;;;5016781;28;20469;-73
2022/01/10 08:59:01;;;;;;;109.30;50.60;;;2.70;99.90;;;;;;5021339;28;20037;-72
2022/01/10 09:01:27;;;;;;;109.93;51.50;;;2.80;99.90;;;;;;5016945;28;20041;-73
2022/01/10 09:03:53;;;;;;;124.45;53.47;;;2.80;99.90;;;;;;5017297;28;20017;-73
2022/01/10 09:06:19;;;;;;;124.20;55.17;;;2.80;99.90;;;;;;5030649;28;20032;-73
2022/01/10 09:08:46;;;;;;;131.40;55.80;;;2.80;99.90;;;;;;5036683;28;20064;-73
2022/01/10 09:11:12;;;;;;;119.05;55.72;;;2.80;99.90;;;;;;5036379;28;20037;-73
2022/01/10 09:13:37;;;;;;;125.65;55.22;;;2.90;99.90;;;;;;5036272;28;20052;-73
2022/01/10 09:16:03;;;;;;;122.55;54.45;;;2.90;99.90;;;;;;5036115;28;20071;-73
2022/01/10 09:18:29;;;;;;;124.72;54.35;;;3.00;99.90;;;;;;5036216;28;20022;-73
2022/01/10 09:20:55;;;;;;;124.93;57.58;;;3.00;99.90;;;;;;5036221;28;20027;-73
2022/01/10 09:23:25;;;;;;;124.03;57.20;;;3.00;99.90;;;;;;5036397;28;20026;-73
2022/01/10 09:25:51;;;;;;;130.68;58.40;;;3.10;99.90;;;;;;5035906;28;20029;-72
2022/01/10 09:28:18;;;;;;;113.25;52.45;;;3.10;99.90;;;;;;5036338;28;20036;-73
2022/01/10 09:30:43;;;;;;;110.35;50.78;;;3.10;99.90;;;;;;5034002;28;20507;-72
2022/01/10 09:33:09;;;;;;;120.13;55.50;;;3.20;99.90;;;;;;5036205;28;20025;-73
2022/01/10 09:35:36;;;;;;;121.07;55.72;;;3.20;99.90;;;;;;5014767;28;20022;-72
2022/01/10 09:38:02;;;;;;;131.30;57.67;;;3.30;99.90;;;;;;5016088;28;20366;-73
2022/01/10 09:40:27;;;;;;;133.90;57.03;;;3.30;99.90;;;;;;5022108;28;20025;-72
2022/01/10 09:42:53;;;;;;;127.35;56.63;;;3.40;99.90;;;;;;5019186;28;20049;-73
2022/01/10 09:45:19;;;;;;;134.30;57.22;;;3.40;99.90;;;;;;5016374;28;20026;-72
2022/01/10 09:47:44;;;;;;;120.35;57.58;;;3.50;99.90;;;;;;5015908;28;20444;-73
2022/01/10 09:50:10;;;;;;;137.35;60.25;;;3.50;99.90;;;;;;5015936;28;20398;-73
2022/01/10 09:52:39;;;;;;;129.32;59.63;;;3.50;99.90;;;;;;5015756;28;20071;-72
2022/01/10 09:55:06;;;;;;;145.38;60.45;;;3.60;99.90;;;;;;5015450;28;20091;-73
2022/01/10 09:57:31;;;;;;;135.43;62.08;;;3.70;99.90;;;;;;5015520;28;20084;-73
2022/01/10 09:59:57;;;;;;;132.07;61.25;;;3.80;99.90;;;;;;5015645;28;20389;-73
2022/01/10 10:02:33;;;;;;;132.32;61.90;;;3.90;99.90;;;;;;5015622;28;20097;-74
2022/01/10 10:05:01;;;;;;;133.43;61.95;;;4.00;99.90;;;;;;5015908;28;20379;-73
2022/01/10 10:07:26;;;;;;;132.27;60.78;;;4.00;99.90;;;;;;5015505;28;20018;-73
2022/01/10 10:09:57;;;;;;;129.50;58.70;;;4.10;99.90;;;;;;5015483;28;20033;-73
2022/01/10 10:12:26;;;;;;;136.52;64.55;;;4.10;99.90;;;;;;4997816;28;20073;-73
2022/01/10 10:14:52;;;;;;;128.05;61.05;;;4.10;99.90;;;;;;5015274;28;20044;-73
2022/01/10 10:17:18;;;;;;;136.27;64.18;;;4.10;99.90;;;;;;5015356;28;20470;-73
2022/01/10 10:19:46;;;;;;;127.07;61.67;;;4.10;99.90;;;;;;5015282;28;20022;-73
2022/01/10 10:22:15;;;;;;;136.88;61.88;;;4.20;99.90;;;;;;5015261;28;20105;-73
2022/01/10 10:24:41;;;;;;;129.38;61.83;;;4.20;99.90;;;;;;5015379;28;20030;-72
2022/01/10 10:27:08;;;;;;;125.30;61.25;;;4.10;99.90;;;;;;5015400;28;20034;-73
2022/01/10 10:29:38;;;;;;;127.50;61.38;;;4.10;99.90;;;;;;5015389;28;20026;-74
2022/01/10 10:32:04;;;;;;;119.00;58.25;;;4.10;99.90;;;;;;5014993;28;20466;-73
2022/01/10 10:34:32;;;;;;;131.27;62.53;;;4.10;99.90;;;;;;4997494;28;20045;-74
2022/01/10 10:37:10;;;;;;;135.55;61.75;;;4.20;99.90;;;;;;5015135;28;20025;-74
2022/01/10 10:39:44;;;;;;;119.55;58.75;;;4.20;99.90;;;;;;5015169;28;20036;-73
2022/01/10 10:42:16;;;;;;;129.65;63.20;;;4.20;99.90;;;;;;4997307;28;20465;-73
2022/01/10 10:44:43;;;;;;;123.25;60.70;;;4.20;99.90;;;;;;5006342;28;20121;-73
2022/01/10 10:47:10;;;;;;;114.30;59.25;;;4.20;99.90;;;;;;5014783;28;20097;-74
2022/01/10 10:49:44;;;;;;;134.10;64.40;;;4.20;99.90;;;;;;5018339;28;20038;-73
2022/01/10 10:52:11;;;;;;;131.80;62.88;;;4.20;99.90;;;;;;5034961;28;20022;-73
2022/01/10 10:54:38;;;;;;;130.80;64.70;;;4.10;99.90;;;;;;5033437;28;20022;-74
2022/01/10 10:57:08;;;;;;;130.10;61.75;;;4.10;99.90;;;;;;5018686;28;20509;-73
2022/01/10 10:59:43;;;;;;;135.23;63.47;;;4.10;99.90;;;;;;5014485;28;20079;-73
2022/01/10 11:02:10;;;;;;;121.15;60.55;;;4.10;99.90;;;;;;5015099;28;20065;-74
2022/01/10 11:04:36;;;;;;;118.38;61.67;;;4.10;99.90;;;;;;5012814;28;20451;-73
2022/01/10 11:07:02;;;;;;;113.75;59.28;;;4.10;99.90;;;;;;5016683;28;20113;-73
2022/01/10 11:09:28;;;;;;;118.35;58.10;;;4.10;99.90;;;;;;5014912;28;20394;-74
2022/01/10 11:11:54;;;;;;;119.25;60.13;;;4.20;99.90;;;;;;5026388;28;20030;-74
2022/01/10 11:14:22;;;;;;;124.07;62.38;;;4.20;99.90;;;;;;5030152;28;20022;-74
2022/01/10 11:16:52;;;;;;;119.15;60.83;;;4.20;99.90;;;;;;5031901;28;20029;-73
2022/01/10 11:19:21;;;;;;;127.88;64.68;;;4.30;99.90;;;;;;5016225;28;20026;-74
2022/01/10 11:22:07;;;;;;;130.93;62.90;;;4.30;99.90;;;;;;5017828;28;20022;-74
2022/01/10 11:24:53;;;;;;;124.53;63.08;;;4.40;99.90;;;;;;5014093;28;20025;-74
2022/01/10 11:27:39;;;;;;;128.70;64.60;;;4.40;99.90;;;;;;4996510;28;20037;-74
2022/01/10 11:30:24;;;;;;;112.15;59.10;;;4.50;99.90;;;;;;4996388;28;20109;-74
2022/01/10 11:33:02;;;;;;;110.82;56.80;;;4.50;99.90;;;;;;4996474;28;20021;-74
2022/01/10 11:35:38;;;;;;;127.20;59.47;;;4.50;99.90;;;;;;5013962;28;20026;-74
2022/01/10 11:38:23;;;;;;;114.72;60.60;;;4.50;99.90;;;;;;5013924;28;20056;-74
2022/01/10 11:40:53;;;;;;;125.15;61.70;;;4.50;99.90;;;;;;5014111;28;20037;-74
2022/01/10 11:43:35;;;;;;;118.38;62.78;;;4.50;99.90;;;;;;5013809;28;20026;-74
2022/01/10 11:46:25;;;;;;;134.88;62.00;;;4.50;99.90;;;;;;5013889;28;20022;-74
2022/01/10 11:48:54;;;;;;;124.45;64.88;;;4.60;99.90;;;;;;4996141;28;20025;-74
2022/01/10 11:51:24;;;;;;;120.78;60.83;;;4.50;99.90;;;;;;5013917;28;20087;-74
2022/01/10 11:53:59;;;;;;;125.40;65.60;;;4.60;99.90;;;;;;5026290;28;20071;-74
2022/01/10 11:56:31;;;;;;;128.25;67.05;;;4.60;99.90;;;;;;5025171;28;20105;-74
2022/01/10 11:59:26;;;;;;;129.15;65.10;;;4.70;99.90;;;;;;5013903;28;20100;-74
2022/01/10 12:01:58;;;;;;;137.73;66.60;;;4.70;99.90;;;;;;5014458;28;20041;-74
2022/01/10 12:04:28;;;;;;;125.70;64.15;;;4.60;99.90;;;;;;5015285;28;20026;-74
2022/01/10 12:06:55;;;;;;;138.30;64.90;;;4.70;99.90;;;;;;5031338;28;20495;-74
2022/01/10 12:09:21;;;;;;;131.20;67.97;;;4.70;99.90;;;;;;4995897;28;20073;-74
2022/01/10 12:11:49;;;;;;;125.53;64.55;;;4.70;99.90;;;;;;5016003;28;20082;-74
2022/01/10 12:14:15;;;;;;;126.80;64.38;;;4.60;99.90;;;;;;5013971;28;20030;-74
2022/01/10 12:16:41;;;;;;;129.35;64.75;;;4.70;99.90;;;;;;5014853;28;20033;-73
2022/01/10 12:19:09;;;;;;;120.28;59.92;;;4.70;99.90;;;;;;5033102;28;20385;-74
2022/01/10 12:21:35;;;;;;;129.40;64.72;;;4.80;99.90;;;;;;5033068;28;20029;-73
2022/01/10 12:24:01;;;;;;;120.78;64.45;;;4.80;99.90;;;;;;5033072;28;20021;-74
2022/01/10 12:26:28;;;;;;;122.30;63.90;;;4.80;99.90;;;;;;5055130;23;20048;-70
2022/01/10 12:28:56;;;;;;;127.45;63.00;;;4.80;99.90;;;;;;5033383;28;20021;-70
2022/01/10 12:31:24;;;;;;;124.25;65.72;;;4.80;99.90;;;;;;5029394;28;20485;-70
2022/01/10 12:33:52;;;;;;;128.93;65.50;;;4.70;99.90;;;;;;5033263;28;20079;-70
2022/01/10 12:36:19;;;;;;;139.35;70.30;;;4.70;99.90;;;;;;5030173;28;20370;-71
2022/01/10 12:38:53;;;;;;;128.70;63.20;;;4.70;99.90;;;;;;5012835;28;20037;-71
2022/01/10 12:41:20;;;;;;;122.88;64.60;;;4.60;99.90;;;;;;5014845;28;20026;-70